Terminal Aerodrome Forecast
Issued by NWS Shreveport, LA

Home | Current Version | Previous Version | Text Only | Print | Product List | Glossary On
Versions: 1 2 3 4 5 6 7 8 9 10 11 12 13 14
000
FTUS44 KSHV 050535
TAFMLU
TAF
KMLU 050535Z 0506/0606 22007KT P6SM BKN250
      TEMPO 0508/0512 3SM BR BKN020
     FM051200 20006KT P6SM VCTS BKN030CB
     FM060000 18003KT P6SM SCT250=

USA.gov is the U.S. government's official web portal to all federal, state and local government web resources and services.